Time;durP1;ratioP1;P1;durP2;ratioP2;P2;SDS_P1;SDS_P2;PMS_P1;PMS_P2;Temp;Humidity;BMP_temperature;BMP_pressure;BME280_temperature;BME280_humidity;BME280_pressure;Samples;Min_cycle;Max_cycle;Signal;HPM_P1;HPM_P2
2022/01/02 00:01:46;;;;;;;13.95;6.40;;;1.70;99.90;;;;;;5091546;28;20030;-54
2022/01/02 00:04:17;;;;;;;27.20;8.15;;;1.70;99.90;;;;;;5071102;28;20017;-52
2022/01/02 00:06:50;;;;;;;14.50;7.47;;;1.70;99.90;;;;;;5079919;28;20043;-55
2022/01/02 00:09:36;;;;;;;43.60;8.77;;;1.80;99.90;;;;;;5091516;28;20028;-54
2022/01/02 00:12:11;;;;;;;54.55;7.88;;;1.80;99.90;;;;;;5091303;28;20538;-55
2022/01/02 00:14:41;;;;;;;100.82;9.43;;;1.80;99.90;;;;;;5091041;28;20036;-54
2022/01/02 00:17:09;;;;;;;65.65;8.70;;;1.70;99.90;;;;;;5091044;28;20039;-55
2022/01/02 00:19:38;;;;;;;50.53;7.47;;;1.70;99.90;;;;;;5090922;28;20689;-54
2022/01/02 00:22:13;;;;;;;38.03;8.95;;;1.70;99.90;;;;;;5091237;28;20028;-54
2022/01/02 00:24:41;;;;;;;28.38;8.18;;;1.70;99.90;;;;;;5091178;28;20023;-56
2022/01/02 00:27:09;;;;;;;100.05;8.35;;;1.70;99.90;;;;;;5090711;28;20028;-55
2022/01/02 00:29:40;;;;;;;90.18;8.80;;;1.70;99.90;;;;;;5091164;28;20024;-55
2022/01/02 00:32:07;;;;;;;172.95;10.25;;;1.70;99.90;;;;;;5090977;28;20020;-53
2022/01/02 00:34:38;;;;;;;146.75;10.52;;;1.70;99.90;;;;;;5090887;28;20397;-55
2022/01/02 00:37:05;;;;;;;70.63;9.02;;;1.60;99.90;;;;;;5090964;28;20028;-52
2022/01/02 00:39:31;;;;;;;96.43;8.65;;;1.70;99.90;;;;;;5090659;28;20024;-53
2022/01/02 00:42:05;;;;;;;110.00;8.73;;;1.70;99.90;;;;;;5091243;28;20028;-55
2022/01/02 00:44:58;;;;;;;101.30;8.63;;;1.70;99.90;;;;;;5091009;28;20128;-55
2022/01/02 00:47:37;;;;;;;44.37;7.53;;;1.60;99.90;;;;;;5094585;28;20063;-54
2022/01/02 00:50:29;;;;;;;49.67;6.78;;;1.60;99.90;;;;;;5094641;28;20258;-55
2022/01/02 00:52:58;;;;;;;35.75;6.80;;;1.60;99.90;;;;;;5094529;28;20648;-55
2022/01/02 00:55:25;;;;;;;48.75;9.55;;;1.60;99.90;;;;;;5094115;28;20047;-56
2022/01/02 00:58:12;;;;;;;33.03;7.82;;;1.70;99.90;;;;;;5094321;28;20643;-54
2022/01/02 01:00:45;;;;;;;89.47;8.25;;;1.60;99.90;;;;;;5094466;28;20063;-55
2022/01/02 01:03:16;;;;;;;49.78;7.97;;;1.60;99.90;;;;;;5094084;28;20122;-55
2022/01/02 01:05:45;;;;;;;97.90;8.77;;;1.60;99.90;;;;;;5093991;28;20031;-55
2022/01/02 01:08:11;;;;;;;106.93;8.57;;;1.70;99.90;;;;;;5094467;28;20077;-56
2022/01/02 01:10:41;;;;;;;57.25;7.53;;;1.70;99.90;;;;;;5093973;28;20400;-55
2022/01/02 01:13:08;;;;;;;69.03;7.45;;;1.70;99.90;;;;;;5093962;28;20024;-54
2022/01/02 01:15:35;;;;;;;91.22;7.85;;;1.60;99.90;;;;;;5094081;28;20158;-51
2022/01/02 01:18:03;;;;;;;74.50;7.30;;;1.60;99.90;;;;;;5094065;28;20026;-54
2022/01/02 01:20:39;;;;;;;75.97;6.88;;;1.60;99.90;;;;;;5093938;28;20023;-54
2022/01/02 01:23:05;;;;;;;64.32;7.43;;;1.50;99.90;;;;;;5093791;28;20386;-55
2022/01/02 01:25:31;;;;;;;45.75;6.95;;;1.50;99.90;;;;;;5093828;28;20028;-55
2022/01/02 01:27:57;;;;;;;73.18;7.00;;;1.50;99.90;;;;;;5093933;28;20039;-52
2022/01/02 01:30:26;;;;;;;76.30;6.90;;;1.40;99.90;;;;;;5093508;28;20471;-54
2022/01/02 01:32:53;;;;;;;44.53;6.70;;;1.40;99.90;;;;;;5093646;28;20103;-55
2022/01/02 01:35:19;;;;;;;40.97;6.50;;;1.30;99.90;;;;;;5093548;28;20032;-55
2022/01/02 01:37:45;;;;;;;42.25;6.32;;;1.20;99.90;;;;;;5092933;28;20016;-55
2022/01/02 01:40:12;;;;;;;35.17;6.15;;;1.20;99.90;;;;;;5093519;28;20081;-55
2022/01/02 01:42:43;;;;;;;36.17;6.75;;;1.20;99.90;;;;;;5093661;28;20028;-54
2022/01/02 01:47:45;;;;;;;11.85;5.53;;;1.10;99.90;;;;;;5093797;28;20051;-55
2022/01/02 01:50:11;;;;;;;10.07;6.45;;;1.10;99.90;;;;;;5093443;28;20023;-55
2022/01/02 01:52:37;;;;;;;6.15;5.50;;;1.10;99.90;;;;;;5092902;28;20154;-55
2022/01/02 01:55:04;;;;;;;7.05;6.35;;;1.10;99.90;;;;;;5093131;28;20119;-56
2022/01/02 01:57:29;;;;;;;6.60;6.00;;;1.00;99.90;;;;;;5091916;28;20082;-54
2022/01/02 01:59:55;;;;;;;5.63;5.13;;;1.10;99.90;;;;;;5092948;28;20040;-54
2022/01/02 02:02:22;;;;;;;6.88;5.50;;;1.10;99.90;;;;;;5093213;28;20020;-54
2022/01/02 02:04:48;;;;;;;10.88;5.70;;;1.20;99.90;;;;;;5093064;28;20121;-52
2022/01/02 02:07:15;;;;;;;19.00;5.60;;;1.20;99.90;;;;;;5093034;28;20028;-55
2022/01/02 02:10:04;;;;;;;15.05;5.90;;;1.10;99.90;;;;;;5092957;28;20036;-52
2022/01/02 02:12:30;;;;;;;7.78;6.25;;;1.00;99.90;;;;;;5093048;28;20111;-53
2022/01/02 02:14:56;;;;;;;7.47;6.50;;;1.00;99.90;;;;;;5092711;28;20107;-53
2022/01/02 02:17:23;;;;;;;7.68;6.30;;;1.00;99.90;;;;;;5074713;28;20024;-55
2022/01/02 02:19:55;;;;;;;6.60;6.00;;;1.00;99.90;;;;;;5092760;28;20020;-55
2022/01/02 02:22:20;;;;;;;7.13;5.75;;;1.00;99.90;;;;;;5092702;28;20016;-53
2022/01/02 02:24:46;;;;;;;6.80;5.13;;;0.90;99.90;;;;;;5092976;28;20483;-54
2022/01/02 02:27:12;;;;;;;9.63;7.40;;;0.90;99.90;;;;;;5092760;28;20050;-55
2022/01/02 02:29:37;;;;;;;9.85;5.78;;;0.90;99.90;;;;;;5092701;28;20027;-55
2022/01/02 02:32:03;;;;;;;9.05;5.82;;;0.90;99.90;;;;;;5092670;28;20113;-54
2022/01/02 02:34:29;;;;;;;8.00;6.68;;;0.80;99.90;;;;;;5074223;28;20024;-52
2022/01/02 02:36:54;;;;;;;13.13;7.30;;;0.80;99.90;;;;;;5074203;28;20048;-54
2022/01/02 02:39:20;;;;;;;23.05;6.97;;;0.90;99.90;;;;;;5092273;28;20077;-54
2022/01/02 02:41:46;;;;;;;47.55;7.82;;;0.90;99.90;;;;;;5092681;28;20034;-53
2022/01/02 02:44:35;;;;;;;18.20;6.90;;;0.90;99.90;;;;;;5092178;28;20115;-52
2022/01/02 02:49:45;;;;;;;83.25;8.90;;;0.90;99.90;;;;;;5092515;28;20537;-54
2022/01/02 02:52:25;;;;;;;67.03;8.85;;;0.90;99.90;;;;;;5092256;28;20032;-54
2022/01/02 02:54:51;;;;;;;95.32;8.70;;;0.80;99.90;;;;;;5091840;28;20036;-56
2022/01/02 02:57:19;;;;;;;36.40;8.13;;;0.80;99.90;;;;;;5092599;28;20536;-55
2022/01/02 02:59:45;;;;;;;25.75;6.57;;;0.80;99.90;;;;;;5092031;28;20016;-55
2022/01/02 03:02:10;;;;;;;61.70;8.60;;;0.80;99.90;;;;;;5092341;28;20026;-55
2022/01/02 03:04:36;;;;;;;91.65;10.63;;;0.80;99.90;;;;;;5091689;28;20114;-55
2022/01/02 03:07:02;;;;;;;90.22;8.15;;;0.80;99.90;;;;;;5091940;28;20026;-55
2022/01/02 03:09:39;;;;;;;70.55;10.48;;;0.70;99.90;;;;;;5090933;28;20399;-55
2022/01/02 03:12:06;;;;;;;84.40;8.05;;;0.60;99.90;;;;;;5092065;28;20035;-54
2022/01/02 03:14:32;;;;;;;70.55;8.80;;;0.60;99.90;;;;;;5091551;28;20060;-54
2022/01/02 03:16:58;;;;;;;52.53;9.35;;;0.50;99.90;;;;;;5091971;28;20664;-54
2022/01/02 03:19:24;;;;;;;58.78;8.52;;;0.60;99.90;;;;;;5091737;28;20921;-52
2022/01/02 03:21:49;;;;;;;63.83;7.57;;;0.60;99.90;;;;;;5091789;28;20094;-51
2022/01/02 03:24:15;;;;;;;79.80;7.90;;;0.60;99.90;;;;;;5091447;28;20032;-52
2022/01/02 03:26:41;;;;;;;32.13;7.57;;;0.60;99.90;;;;;;5073615;28;20047;-56
2022/01/02 03:29:06;;;;;;;67.32;8.18;;;0.60;99.90;;;;;;5091290;28;20032;-56
2022/01/02 03:31:32;;;;;;;106.35;7.82;;;0.60;99.90;;;;;;5091347;28;20026;-54
2022/01/02 03:33:59;;;;;;;30.52;6.88;;;0.60;99.90;;;;;;5091600;28;20115;-53
2022/01/02 03:36:24;;;;;;;41.92;7.20;;;0.70;99.90;;;;;;5091400;28;20336;-55
2022/01/02 03:38:50;;;;;;;62.53;8.63;;;0.70;99.90;;;;;;5091459;28;20027;-53
2022/01/02 03:41:15;;;;;;;44.60;6.97;;;0.70;99.90;;;;;;5091533;28;20084;-55
2022/01/02 03:43:41;;;;;;;33.08;6.97;;;0.70;99.90;;;;;;5091338;28;20502;-56
2022/01/02 03:46:07;;;;;;;74.10;8.23;;;0.70;99.90;;;;;;5073204;28;20495;-54
2022/01/02 03:48:33;;;;;;;39.35;7.68;;;0.70;99.90;;;;;;5091362;28;20032;-55
2022/01/02 03:50:59;;;;;;;60.47;8.13;;;0.80;99.90;;;;;;5091313;28;20036;-54
2022/01/02 03:53:25;;;;;;;67.93;7.93;;;0.80;99.90;;;;;;5091437;28;20035;-54
2022/01/02 03:55:51;;;;;;;79.45;7.90;;;0.80;99.90;;;;;;5091227;28;20048;-55
2022/01/02 03:58:17;;;;;;;98.00;10.25;;;0.90;99.90;;;;;;5091421;28;20174;-55
2022/01/02 04:00:43;;;;;;;92.50;10.93;;;0.90;99.90;;;;;;5091324;28;20646;-54
2022/01/02 04:03:09;;;;;;;63.85;8.02;;;0.90;99.90;;;;;;5091536;28;20073;-53
2022/01/02 04:05:34;;;;;;;74.80;8.60;;;0.80;99.90;;;;;;5091054;28;20118;-54
2022/01/02 04:08:00;;;;;;;97.47;8.60;;;0.70;99.90;;;;;;5091243;28;20024;-55
2022/01/02 04:10:26;;;;;;;13.95;7.00;;;0.70;99.90;;;;;;5091013;28;20476;-55
2022/01/02 04:12:52;;;;;;;140.30;12.13;;;0.70;99.90;;;;;;5091290;28;20063;-54
2022/01/02 04:15:17;;;;;;;33.70;8.07;;;0.70;99.90;;;;;;5091016;28;20066;-54
2022/01/02 04:17:43;;;;;;;102.25;8.85;;;0.70;99.90;;;;;;5091473;28;20622;-53
2022/01/02 04:20:11;;;;;;;103.53;8.32;;;0.70;99.90;;;;;;5092452;28;20031;-53
2022/01/02 04:22:38;;;;;;;93.13;8.00;;;0.60;99.90;;;;;;5094732;28;20032;-54
2022/01/02 04:25:04;;;;;;;41.28;6.80;;;0.60;99.90;;;;;;5060586;28;20371;-55
2022/01/02 04:27:30;;;;;;;28.50;8.35;;;0.50;99.90;;;;;;5094198;28;20062;-51
2022/01/02 04:29:56;;;;;;;11.63;6.93;;;0.50;99.90;;;;;;5094827;28;20024;-56
2022/01/02 04:32:22;;;;;;;14.63;6.22;;;0.50;99.90;;;;;;5094833;28;20479;-55
2022/01/02 04:34:47;;;;;;;38.97;7.38;;;0.50;99.90;;;;;;5094328;28;20028;-55
2022/01/02 04:37:13;;;;;;;51.58;8.63;;;0.60;99.90;;;;;;5094763;28;20531;-52
2022/01/02 04:39:40;;;;;;;44.28;7.75;;;0.60;99.90;;;;;;5094375;28;20017;-52
2022/01/02 04:42:06;;;;;;;69.35;9.63;;;0.50;99.90;;;;;;5094716;28;20031;-52
2022/01/02 04:44:32;;;;;;;20.02;7.45;;;0.50;99.90;;;;;;5094546;28;20024;-54
2022/01/02 04:46:58;;;;;;;22.42;6.53;;;0.40;99.90;;;;;;5094805;28;20114;-52
2022/01/02 04:49:23;;;;;;;14.35;7.20;;;0.40;99.90;;;;;;5094242;28;20421;-53
2022/01/02 04:51:49;;;;;;;19.30;10.95;;;0.40;99.90;;;;;;5094486;28;20035;-55
2022/01/02 04:54:15;;;;;;;18.40;12.00;;;0.40;99.90;;;;;;5094335;28;20024;-51
2022/01/02 04:56:41;;;;;;;35.55;17.48;;;0.40;99.90;;;;;;5094532;28;20404;-55
2022/01/02 04:59:06;;;;;;;28.48;15.93;;;0.40;99.90;;;;;;5094436;28;20028;-52
2022/01/02 05:01:32;;;;;;;20.08;8.55;;;0.40;99.90;;;;;;5094520;28;20024;-51
2022/01/02 05:03:58;;;;;;;25.45;7.43;;;0.50;99.90;;;;;;5094187;28;20093;-56
2022/01/02 05:06:23;;;;;;;61.80;10.05;;;0.50;99.90;;;;;;5094300;28;20040;-55
2022/01/02 05:08:49;;;;;;;95.25;19.42;;;0.50;99.90;;;;;;5094098;28;20024;-52
2022/01/02 05:11:14;;;;;;;160.43;14.23;;;0.50;99.90;;;;;;5094202;28;20466;-50
2022/01/02 05:13:41;;;;;;;147.13;27.95;;;0.50;99.90;;;;;;5093783;28;20663;-53
2022/01/02 05:16:06;;;;;;;168.07;13.15;;;0.40;99.90;;;;;;5093679;28;20017;-54
2022/01/02 05:18:32;;;;;;;193.02;14.45;;;0.40;99.90;;;;;;5093822;28;20726;-55
2022/01/02 05:20:58;;;;;;;103.35;10.40;;;0.40;99.90;;;;;;5094153;28;20063;-56
2022/01/02 05:23:24;;;;;;;116.07;11.90;;;0.50;99.90;;;;;;5093625;28;20050;-55
2022/01/02 05:25:49;;;;;;;76.70;11.25;;;0.40;99.90;;;;;;5093793;28;20043;-54
2022/01/02 05:28:15;;;;;;;134.00;12.25;;;0.40;99.90;;;;;;5093768;28;20036;-55
2022/01/02 05:30:41;;;;;;;139.85;21.20;;;0.50;99.90;;;;;;5093691;28;20040;-54
2022/01/02 05:33:10;;;;;;;178.98;31.77;;;0.50;99.90;;;;;;5092975;28;20020;-55
2022/01/02 05:35:37;;;;;;;252.73;75.18;;;0.40;99.90;;;;;;5093621;28;20051;-54
2022/01/02 05:38:03;;;;;;;126.97;38.50;;;0.50;99.90;;;;;;5093674;28;20016;-55
2022/01/02 05:40:33;;;;;;;78.00;13.60;;;0.50;99.90;;;;;;5093437;28;20081;-52
2022/01/02 05:43:03;;;;;;;37.03;11.30;;;0.50;99.90;;;;;;5093254;28;20463;-52
2022/01/02 05:45:29;;;;;;;45.28;9.82;;;0.40;99.90;;;;;;5077737;28;20055;-52
2022/01/02 05:47:55;;;;;;;9.35;8.35;;;0.30;99.90;;;;;;5093645;28;20054;-53
2022/01/02 05:50:21;;;;;;;9.70;8.52;;;0.30;99.90;;;;;;5093239;28;20028;-54
2022/01/02 05:52:46;;;;;;;15.82;9.05;;;0.20;99.90;;;;;;5093382;28;20028;-54
2022/01/02 05:55:12;;;;;;;14.65;11.15;;;0.30;99.90;;;;;;5093127;28;20518;-51
2022/01/02 05:57:38;;;;;;;12.45;9.52;;;0.20;99.90;;;;;;5093463;28;20025;-53
2022/01/02 06:00:06;;;;;;;15.82;12.07;;;0.30;99.90;;;;;;5062690;28;20040;-55
2022/01/02 06:02:32;;;;;;;17.60;11.68;;;0.30;99.90;;;;;;5054942;28;20115;-55
2022/01/02 06:05:03;;;;;;;13.43;9.48;;;0.30;99.90;;;;;;5084482;28;20547;-53
2022/01/02 06:07:32;;;;;;;17.00;12.27;;;0.20;99.90;;;;;;5093109;28;20013;-52
2022/01/02 06:09:58;;;;;;;13.18;10.30;;;0.20;99.90;;;;;;5092887;28;20055;-55
2022/01/02 06:12:23;;;;;;;22.05;9.15;;;0.20;99.90;;;;;;5092751;28;20067;-55
2022/01/02 06:14:49;;;;;;;50.78;9.52;;;0.10;99.90;;;;;;5092722;28;20032;-51
2022/01/02 06:17:15;;;;;;;32.45;9.63;;;0.00;99.90;;;;;;5093124;28;20024;-55
2022/01/02 06:19:41;;;;;;;47.75;12.00;;;0.00;99.90;;;;;;5092685;28;20027;-53
2022/01/02 06:22:07;;;;;;;110.55;10.15;;;0.00;99.90;;;;;;5092870;28;20086;-55
2022/01/02 06:24:32;;;;;;;74.47;10.60;;;-0.10;99.90;;;;;;5092075;28;20028;-53
2022/01/02 06:26:58;;;;;;;80.45;12.98;;;-0.10;99.90;;;;;;5074248;28;20372;-54
2022/01/02 06:29:24;;;;;;;52.38;13.65;;;-0.30;99.90;;;;;;5092596;28;20088;-55
2022/01/02 06:31:49;;;;;;;25.67;9.85;;;-0.40;99.90;;;;;;5092289;28;20071;-55
2022/01/02 06:34:24;;;;;;;12.88;9.23;;;-0.40;99.90;;;;;;5092491;28;20024;-55
2022/01/02 06:36:50;;;;;;;41.78;11.00;;;-0.40;99.90;;;;;;5092667;28;20016;-54
2022/01/02 06:39:15;;;;;;;14.23;9.45;;;-0.40;99.90;;;;;;5092320;28;20032;-52
2022/01/02 06:41:41;;;;;;;19.73;13.00;;;-0.40;99.90;;;;;;5092267;28;20592;-52
2022/01/02 06:44:07;;;;;;;8.45;7.25;;;-0.40;99.90;;;;;;5092128;28;20086;-56
2022/01/02 06:46:32;;;;;;;11.63;7.35;;;-0.40;99.90;;;;;;5091806;28;20605;-54
2022/01/02 06:48:58;;;;;;;9.80;8.13;;;-0.40;99.90;;;;;;5092355;28;20426;-56
2022/01/02 06:51:23;;;;;;;10.40;6.30;;;-0.30;99.90;;;;;;5092047;28;20478;-55
2022/01/02 06:53:49;;;;;;;12.40;9.98;;;-0.30;99.90;;;;;;5092206;28;20032;-53
2022/01/02 06:56:15;;;;;;;18.27;13.27;;;-0.30;99.90;;;;;;5092197;28;20067;-55
2022/01/02 06:58:40;;;;;;;40.28;27.17;;;-0.20;99.90;;;;;;5091934;28;20028;-55
2022/01/02 07:01:06;;;;;;;35.67;22.77;;;-0.20;99.90;;;;;;5073706;28;20047;-52
2022/01/02 07:03:33;;;;;;;18.48;14.02;;;-0.10;99.90;;;;;;5091988;28;20081;-53
2022/01/02 07:06:00;;;;;;;20.42;13.02;;;-0.20;99.90;;;;;;5091954;28;20027;-55
2022/01/02 07:08:28;;;;;;;15.88;12.80;;;-0.20;99.90;;;;;;5092001;28;20035;-53
2022/01/02 07:10:54;;;;;;;10.48;9.07;;;-0.20;99.90;;;;;;5091931;28;20031;-53
2022/01/02 07:13:20;;;;;;;11.23;8.07;;;-0.20;99.90;;;;;;5091789;28;20032;-54
2022/01/02 07:15:46;;;;;;;8.30;7.32;;;-0.10;99.90;;;;;;5091567;28;20048;-54
2022/01/02 07:18:11;;;;;;;9.60;8.63;;;-0.10;99.90;;;;;;5091966;28;20024;-55
2022/01/02 07:20:37;;;;;;;14.13;11.73;;;-0.10;99.90;;;;;;5091524;28;20115;-53
2022/01/02 07:23:03;;;;;;;10.10;8.45;;;0.00;99.90;;;;;;5091805;28;20514;-53
2022/01/02 07:25:28;;;;;;;11.95;8.55;;;0.00;99.90;;;;;;5091422;28;20036;-54
2022/01/02 07:27:54;;;;;;;7.22;6.55;;;0.00;99.90;;;;;;5091963;28;20024;-55
2022/01/02 07:30:19;;;;;;;7.78;7.03;;;0.00;99.90;;;;;;5091081;28;20420;-53
2022/01/02 07:32:45;;;;;;;7.85;6.80;;;0.00;99.90;;;;;;5091434;28;20132;-53
2022/01/02 07:35:11;;;;;;;8.10;7.30;;;0.00;99.90;;;;;;5091598;28;20024;-53
2022/01/02 07:37:36;;;;;;;10.95;7.07;;;-0.10;99.90;;;;;;5091626;28;20032;-55
2022/01/02 07:40:04;;;;;;;8.07;7.28;;;0.00;99.90;;;;;;5091489;28;20024;-56
2022/01/02 07:42:30;;;;;;;11.32;8.65;;;0.10;99.90;;;;;;5091578;28;20047;-56
2022/01/02 07:44:55;;;;;;;26.08;14.68;;;0.00;99.90;;;;;;5091089;28;20047;-55
2022/01/02 07:47:21;;;;;;;29.20;15.40;;;0.10;99.90;;;;;;5091081;28;20416;-56
2022/01/02 07:49:47;;;;;;;27.85;16.30;;;0.30;99.90;;;;;;5091444;28;20020;-55
2022/01/02 07:52:12;;;;;;;52.08;23.27;;;0.30;99.90;;;;;;5091643;28;20345;-53
2022/01/02 07:54:38;;;;;;;162.52;64.53;;;0.50;99.90;;;;;;5091402;28;20044;-55
2022/01/02 07:57:05;;;;;;;80.65;32.50;;;0.50;99.90;;;;;;5095829;28;20035;-52
2022/01/02 07:59:31;;;;;;;136.55;54.60;;;0.60;99.90;;;;;;5095281;28;20038;-56
2022/01/02 08:01:57;;;;;;;100.03;39.03;;;0.70;99.90;;;;;;5095384;28;20020;-54
2022/01/02 08:04:22;;;;;;;82.82;31.85;;;0.80;99.90;;;;;;5095235;28;20554;-56
2022/01/02 08:06:48;;;;;;;69.65;31.88;;;0.90;99.90;;;;;;5095579;28;20101;-56
2022/01/02 08:09:14;;;;;;;62.22;30.90;;;0.90;99.90;;;;;;5095478;28;20032;-56
2022/01/02 08:11:40;;;;;;;299.05;69.35;;;0.90;99.90;;;;;;5095327;28;20058;-56
2022/01/02 08:14:06;;;;;;;50.47;25.10;;;0.90;99.90;;;;;;5094964;28;20494;-56
2022/01/02 08:16:32;;;;;;;30.85;15.32;;;1.00;99.90;;;;;;5094949;28;20055;-56
2022/01/02 08:18:58;;;;;;;35.00;16.65;;;1.10;99.90;;;;;;5094926;28;20151;-55
2022/01/02 08:21:24;;;;;;;33.60;16.40;;;1.20;99.90;;;;;;5094740;28;20103;-56
2022/01/02 08:23:49;;;;;;;25.17;13.60;;;1.20;99.90;;;;;;5095021;28;20020;-56
2022/01/02 08:26:15;;;;;;;20.58;13.25;;;1.30;99.90;;;;;;5095136;28;20042;-58
2022/01/02 08:28:41;;;;;;;17.85;11.75;;;1.40;99.90;;;;;;5076475;28;20030;-55
2022/01/02 08:31:06;;;;;;;22.17;12.70;;;1.50;99.90;;;;;;5094945;28;20016;-57
2022/01/02 08:33:32;;;;;;;19.30;11.13;;;1.60;99.90;;;;;;5094597;28;20431;-57
2022/01/02 08:35:57;;;;;;;27.75;12.82;;;1.70;99.90;;;;;;5094585;28;20031;-57
2022/01/02 08:38:23;;;;;;;24.25;12.35;;;1.70;99.90;;;;;;5094540;28;20392;-55
2022/01/02 08:40:49;;;;;;;18.90;12.88;;;1.80;99.90;;;;;;5076455;28;20024;-56
2022/01/02 08:43:14;;;;;;;26.75;13.25;;;1.90;99.90;;;;;;5076387;28;20035;-57
2022/01/02 08:45:40;;;;;;;36.05;21.83;;;1.90;99.90;;;;;;5094377;28;20032;-56
2022/01/02 08:48:06;;;;;;;33.30;18.30;;;2.00;99.90;;;;;;5093329;28;20036;-56
2022/01/02 08:50:32;;;;;;;30.02;17.17;;;2.00;99.90;;;;;;5092967;28;20356;-57
2022/01/02 08:52:58;;;;;;;28.95;14.82;;;2.00;99.90;;;;;;5093277;28;20057;-55
2022/01/02 08:55:24;;;;;;;23.27;12.68;;;2.10;99.90;;;;;;5092172;28;20071;-56
2022/01/02 08:57:50;;;;;;;22.15;12.07;;;2.20;99.90;;;;;;5093321;28;20019;-56
2022/01/02 09:00:16;;;;;;;49.85;22.83;;;2.40;99.90;;;;;;5092962;28;20024;-59
2022/01/02 09:02:42;;;;;;;38.83;22.48;;;2.30;99.90;;;;;;5092892;28;20024;-57
2022/01/02 09:05:08;;;;;;;30.33;15.07;;;2.40;99.90;;;;;;5074243;28;20039;-55
2022/01/02 09:07:35;;;;;;;16.65;12.32;;;2.60;99.90;;;;;;5091604;28;20018;-55
2022/01/02 09:10:01;;;;;;;23.17;11.82;;;2.60;99.90;;;;;;5075080;28;20475;-57
2022/01/02 09:12:26;;;;;;;19.52;11.23;;;2.80;99.90;;;;;;5080243;28;20025;-56
2022/01/02 09:14:52;;;;;;;19.02;9.30;;;2.90;99.90;;;;;;5073998;28;20032;-57
2022/01/02 09:17:18;;;;;;;13.90;7.90;;;3.00;99.90;;;;;;5073848;28;20029;-57
2022/01/02 09:19:43;;;;;;;11.73;8.07;;;3.20;99.90;;;;;;5073983;28;20356;-56
2022/01/02 09:22:09;;;;;;;8.40;7.25;;;3.40;99.90;;;;;;5073896;28;20475;-57
2022/01/02 09:24:34;;;;;;;9.40;7.55;;;3.50;99.90;;;;;;5086683;28;20580;-55
2022/01/02 09:27:00;;;;;;;9.20;7.00;;;3.80;99.90;;;;;;5093992;28;20026;-55
2022/01/02 09:29:26;;;;;;;8.68;5.82;;;4.00;99.90;;;;;;5092443;28;20023;-55
2022/01/02 09:31:51;;;;;;;8.60;5.50;;;4.20;99.90;;;;;;5092793;28;20032;-54
2022/01/02 09:34:17;;;;;;;9.50;5.80;;;4.60;99.90;;;;;;5092541;28;20023;-55
2022/01/02 09:36:43;;;;;;;6.55;5.00;;;5.60;99.90;;;;;;5092727;28;20103;-55
2022/01/02 09:39:08;;;;;;;5.10;4.32;;;6.60;99.90;;;;;;5092463;28;20540;-56
2022/01/02 09:41:34;;;;;;;4.78;4.13;;;7.40;99.90;;;;;;5091637;28;20016;-56
2022/01/02 09:44:00;;;;;;;5.28;4.72;;;8.30;99.90;;;;;;5092402;28;20432;-55
2022/01/02 09:46:27;;;;;;;3.65;3.28;;;8.60;99.90;;;;;;5092370;28;20130;-54
2022/01/02 09:48:55;;;;;;;5.78;4.03;;;9.00;99.90;;;;;;5092390;28;20123;-54
2022/01/02 09:51:27;;;;;;;5.43;3.78;;;10.00;99.90;;;;;;5092301;28;20024;-56
2022/01/02 09:53:54;;;;;;;4.60;3.25;;;11.30;99.90;;;;;;5091816;28;20498;-56
2022/01/02 09:56:20;;;;;;;4.80;3.55;;;11.80;98.60;;;;;;5091841;28;20109;-56
2022/01/02 09:58:46;;;;;;;5.82;4.05;;;11.30;99.90;;;;;;5091801;28;20040;-56
2022/01/02 10:01:17;;;;;;;4.22;3.83;;;11.60;99.90;;;;;;5092061;28;20020;-56
2022/01/02 10:03:45;;;;;;;7.22;6.35;;;12.30;97.90;;;;;;5093010;28;20023;-56
2022/01/02 10:06:11;;;;;;;3.60;3.30;;;12.60;97.00;;;;;;5092939;28;20373;-57
2022/01/02 10:08:37;;;;;;;3.58;3.15;;;13.10;97.20;;;;;;5092832;28;20024;-56
2022/01/02 10:11:07;;;;;;;3.00;2.70;;;13.70;95.60;;;;;;5074080;28;20055;-57
2022/01/02 10:13:44;;;;;;;3.25;2.72;;;13.90;94.60;;;;;;5092307;28;20055;-56
2022/01/02 10:16:19;;;;;;;4.07;3.10;;;14.30;94.00;;;;;;5072634;28;20024;-56
2022/01/02 10:18:45;;;;;;;3.08;2.70;;;15.10;92.60;;;;;;5090858;28;20086;-56
2022/01/02 10:21:25;;;;;;;7.03;3.00;;;16.40;90.30;;;;;;5073825;28;20543;-58
2022/01/02 10:24:12;;;;;;;2.45;2.25;;;17.60;83.10;;;;;;5091898;28;20032;-57
2022/01/02 10:26:38;;;;;;;4.50;2.40;;;18.20;77.10;;;;;;5074328;28;20035;-57
2022/01/02 10:29:14;;;;;;;2.70;2.50;;;18.20;75.10;;;;;;5092459;28;20086;-57
2022/01/02 10:31:40;;;;;;;9.35;3.10;;;17.50;74.50;;;;;;5092447;28;20020;-57
2022/01/02 10:34:07;;;;;;;4.35;3.95;;;15.70;79.00;;;;;;5092256;28;20546;-57
2022/01/02 10:36:35;;;;;;;7.95;5.93;;;13.90;88.30;;;;;;5092314;28;20024;-57
2022/01/02 10:39:05;;;;;;;4.75;4.35;;;13.20;92.00;;;;;;5092545;28;20069;-57
2022/01/02 10:41:33;;;;;;;4.45;4.05;;;12.90;94.50;;;;;;5092343;28;20165;-56
2022/01/02 10:44:22;;;;;;;4.65;3.95;;;13.20;94.80;;;;;;5092372;28;20019;-56
2022/01/02 10:47:07;;;;;;;6.72;2.97;;;13.50;93.50;;;;;;5092039;28;20362;-57
2022/01/02 10:49:54;;;;;;;3.20;2.90;;;15.30;89.80;;;;;;5091806;28;20103;-58
2022/01/02 10:52:37;;;;;;;3.40;2.67;;;15.30;88.90;;;;;;5101729;28;20031;-57
2022/01/02 10:55:16;;;;;;;6.82;2.75;;;15.40;86.10;;;;;;5091719;28;20663;-57
2022/01/02 10:57:46;;;;;;;3.30;3.00;;;16.30;83.70;;;;;;5081230;28;20134;-58
2022/01/02 11:00:12;;;;;;;3.92;2.72;;;16.30;84.00;;;;;;5081615;28;20031;-58
2022/01/02 11:02:39;;;;;;;3.65;2.97;;;16.80;80.00;;;;;;5081647;28;20042;-58
2022/01/02 11:05:08;;;;;;;2.80;2.53;;;16.30;80.50;;;;;;5080756;28;20032;-58
2022/01/02 11:07:42;;;;;;;4.85;2.53;;;16.10;76.90;;;;;;5080991;28;20562;-57
2022/01/02 11:10:10;;;;;;;2.47;2.28;;;15.20;82.40;;;;;;5080621;28;20028;-58
2022/01/02 11:12:41;;;;;;;4.35;2.40;;;14.50;86.20;;;;;;5081176;28;20032;-58
2022/01/02 11:15:09;;;;;;;4.10;2.40;;;14.70;85.90;;;;;;5081390;28;20020;-58
2022/01/02 11:17:36;;;;;;;4.65;3.13;;;15.80;84.30;;;;;;5080674;28;20123;-57
2022/01/02 11:20:10;;;;;;;7.85;4.55;;;16.70;81.70;;;;;;5082921;28;20023;-57
2022/01/02 11:22:38;;;;;;;4.82;2.28;;;17.60;76.40;;;;;;5098406;28;20024;-56
2022/01/02 11:25:38;;;;;;;3.30;2.85;;;18.40;72.10;;;;;;5100958;28;20607;-57
2022/01/02 11:28:09;;;;;;;3.03;2.67;;;19.50;68.30;;;;;;5100504;28;20050;-57
2022/01/02 11:30:37;;;;;;;3.42;2.92;;;20.40;65.80;;;;;;5080221;28;20024;-57
2022/01/02 11:33:14;;;;;;;3.30;2.45;;;21.40;61.00;;;;;;5077023;28;20486;-57
2022/01/02 11:35:42;;;;;;;3.75;2.75;;;21.00;59.70;;;;;;5079839;28;20406;-57
2022/01/02 11:38:08;;;;;;;2.53;2.00;;;22.40;55.10;;;;;;5080567;28;20038;-57
2022/01/02 11:40:48;;;;;;;2.72;2.30;;;21.70;54.90;;;;;;5079323;28;20467;-57
2022/01/02 11:43:35;;;;;;;2.17;1.98;;;23.60;51.00;;;;;;5080805;28;20115;-57
2022/01/02 11:46:24;;;;;;;3.67;1.80;;;23.60;48.80;;;;;;5082452;28;20107;-57
2022/01/02 11:49:13;;;;;;;7.40;2.15;;;22.90;47.40;;;;;;5091683;28;20115;-57
2022/01/02 11:51:48;;;;;;;4.45;3.53;;;22.80;48.50;;;;;;5080795;28;20021;-57
2022/01/02 11:54:32;;;;;;;5.35;2.50;;;22.20;49.40;;;;;;5082636;28;20032;-56
2022/01/02 11:57:12;;;;;;;2.40;2.20;;;20.60;53.00;;;;;;5095873;28;20036;-57
2022/01/02 11:59:43;;;;;;;3.25;1.85;;;20.10;54.40;;;;;;5098423;28;20057;-57
2022/01/02 12:02:26;;;;;;;11.63;2.95;;;19.20;55.40;;;;;;5100771;28;20081;-59
2022/01/02 12:05:02;;;;;;;4.43;2.75;;;18.10;59.40;;;;;;5100958;28;20026;-57
2022/01/02 12:07:37;;;;;;;2.72;2.28;;;17.50;62.00;;;;;;5100526;28;20370;-58
2022/01/02 12:10:20;;;;;;;3.25;2.40;;;17.10;63.10;;;;;;5100877;28;20046;-58
2022/01/02 12:13:10;;;;;;;4.85;2.45;;;17.10;65.40;;;;;;5099073;28;20063;-59
2022/01/02 12:15:38;;;;;;;2.97;2.63;;;17.50;65.10;;;;;;5099723;28;20054;-58
2022/01/02 12:18:19;;;;;;;7.18;2.70;;;17.80;64.00;;;;;;5099660;28;20027;-58
2022/01/02 12:20:54;;;;;;;5.43;2.63;;;17.10;66.30;;;;;;5099282;28;20050;-58
2022/01/02 12:23:32;;;;;;;2.92;2.40;;;17.10;65.70;;;;;;5084277;28;20043;-58
2022/01/02 12:26:09;;;;;;;2.65;2.20;;;17.20;67.10;;;;;;5080253;28;20032;-58
2022/01/02 12:28:43;;;;;;;3.35;2.95;;;17.60;66.00;;;;;;5081174;28;20059;-58
2022/01/02 12:31:16;;;;;;;7.20;3.40;;;16.90;64.60;;;;;;5085544;28;20032;-58
2022/01/02 12:33:42;;;;;;;4.50;3.17;;;17.00;66.00;;;;;;5078891;28;20035;-57
2022/01/02 12:36:08;;;;;;;4.22;3.40;;;16.60;67.10;;;;;;5078014;28;20509;-56
2022/01/02 12:39:00;;;;;;;6.78;3.83;;;16.30;68.50;;;;;;5088554;28;20028;-57
2022/01/02 12:41:27;;;;;;;4.03;3.55;;;15.20;70.80;;;;;;5090897;28;20114;-57
2022/01/02 12:44:09;;;;;;;3.55;2.97;;;14.70;72.00;;;;;;5075268;28;20024;-57
2022/01/02 12:46:53;;;;;;;10.10;4.55;;;14.10;76.00;;;;;;5093059;28;20028;-57
2022/01/02 12:49:27;;;;;;;5.32;3.95;;;13.60;80.10;;;;;;5093315;28;20043;-56
2022/01/02 12:51:56;;;;;;;4.90;3.40;;;13.30;83.00;;;;;;5093580;28;20028;-57
2022/01/02 12:54:25;;;;;;;3.55;3.25;;;13.10;83.10;;;;;;5092865;28;20052;-57
2022/01/02 12:56:53;;;;;;;4.85;3.70;;;13.10;86.60;;;;;;5093482;28;20020;-57